createdAt,value
2022-10-09T00:00:59.580Z,51.216106
2022-10-09T00:01:59.621Z,51.216053
2022-10-09T00:02:59.569Z,51.216015
2022-10-09T00:03:59.575Z,51.215954
2022-10-09T00:04:59.595Z,51.216030
2022-10-09T00:05:59.562Z,51.216072
2022-10-09T00:06:59.554Z,51.216034
2022-10-09T00:07:59.538Z,51.215858
2022-10-09T00:08:59.530Z,51.215908
2022-10-09T00:09:59.527Z,51.215927
2022-10-09T00:10:59.523Z,51.215534
2022-10-09T00:11:59.519Z,51.215759
2022-10-09T00:12:59.500Z,51.215767
2022-10-09T00:13:59.496Z,51.215935
2022-10-09T00:14:59.493Z,51.215893
2022-10-09T00:15:59.492Z,51.215904
2022-10-09T00:16:59.715Z,51.216080
2022-10-09T00:17:59.484Z,51.216190
2022-10-09T00:18:59.474Z,51.216003
2022-10-09T00:19:59.463Z,51.216183
2022-10-09T00:20:59.456Z,51.216240
2022-10-09T00:21:59.467Z,51.216087
2022-10-09T00:22:59.435Z,51.216145
2022-10-09T00:23:59.428Z,51.216110
2022-10-09T00:24:59.436Z,51.216179
2022-10-09T00:25:59.432Z,51.216122
2022-10-09T00:26:59.419Z,51.216167
2022-10-09T00:27:59.432Z,51.216152
2022-10-09T00:28:59.515Z,51.216133
2022-10-09T00:29:59.396Z,51.216072
2022-10-09T00:30:59.481Z,51.216198
2022-10-09T00:31:59.404Z,51.216084
2022-10-09T00:32:59.382Z,51.216171
2022-10-09T00:33:59.380Z,51.216053
2022-10-09T00:34:59.364Z,51.216118
2022-10-09T00:35:59.356Z,51.216133
2022-10-09T00:36:59.356Z,51.216049
2022-10-09T00:37:59.347Z,51.215992
2022-10-09T00:38:59.344Z,51.215973
2022-10-09T00:39:59.333Z,51.216072
2022-10-09T00:40:59.324Z,51.216164
2022-10-09T00:41:59.333Z,51.215820
2022-10-09T00:42:59.314Z,51.216003
2022-10-09T00:43:59.347Z,51.216335
2022-10-09T00:44:59.299Z,51.215729
2022-10-09T00:45:59.314Z,51.215664
2022-10-09T00:46:59.296Z,51.215813
2022-10-09T00:47:59.284Z,51.215843
2022-10-09T00:48:59.292Z,51.215862
2022-10-09T00:49:59.280Z,51.215843
2022-10-09T00:50:59.260Z,51.216000
2022-10-09T00:51:59.255Z,51.216011
2022-10-09T00:52:59.255Z,51.216026
2022-10-09T00:53:59.243Z,51.215973
2022-10-09T00:54:59.247Z,51.216225
2022-10-09T00:55:59.226Z,51.216072
2022-10-09T00:56:59.219Z,51.216022
2022-10-09T00:57:59.206Z,51.215996
2022-10-09T00:58:59.207Z,51.216080
2022-10-09T00:59:59.211Z,51.216118
2022-10-09T01:00:59.238Z,51.216091
2022-10-09T01:01:59.295Z,51.216057
2022-10-09T01:02:59.200Z,51.216099
2022-10-09T01:03:59.177Z,51.216064
2022-10-09T01:04:59.171Z,51.215855
2022-10-09T01:05:59.160Z,51.215981
2022-10-09T01:06:59.156Z,51.216137
2022-10-09T01:07:59.164Z,51.215969
2022-10-09T01:08:59.135Z,51.215996
2022-10-09T01:09:59.136Z,51.215904
2022-10-09T01:10:59.134Z,51.216000
2022-10-09T01:11:59.130Z,51.215946
2022-10-09T01:12:59.115Z,51.216015
2022-10-09T01:13:59.127Z,51.216000
2022-10-09T01:14:59.135Z,51.215996
2022-10-09T01:15:59.164Z,51.216030
2022-10-09T01:16:59.095Z,51.215954
2022-10-09T01:17:59.088Z,51.215878
2022-10-09T01:18:59.079Z,51.215824
2022-10-09T01:19:59.084Z,51.216019
2022-10-09T01:20:59.075Z,51.216103
2022-10-09T01:21:59.061Z,51.216045
2022-10-09T01:22:59.055Z,51.216114
2022-10-09T01:23:59.055Z,51.216087
2022-10-09T01:24:59.043Z,51.216072
2022-10-09T01:25:59.055Z,51.216022
2022-10-09T01:26:59.024Z,51.216084
2022-10-09T01:27:59.031Z,51.215919
2022-10-09T01:28:59.015Z,51.215878
2022-10-09T01:29:59.008Z,51.215981
2022-10-09T01:30:59.058Z,51.215870
2022-10-09T01:31:58.995Z,51.215809
2022-10-09T01:32:59.010Z,51.215870
2022-10-09T01:33:58.987Z,51.215950
2022-10-09T01:34:58.985Z,51.216000
2022-10-09T01:35:58.984Z,51.215832
2022-10-09T01:36:58.991Z,51.215881
2022-10-09T01:37:58.967Z,51.215794
2022-10-09T01:38:58.956Z,51.215935
2022-10-09T01:39:58.951Z,51.216015
2022-10-09T01:40:58.946Z,51.216099
2022-10-09T01:41:58.959Z,51.216057
2022-10-09T01:42:59.125Z,51.215900
2022-10-09T01:43:58.923Z,51.215897
2022-10-09T01:44:58.924Z,51.215908
2022-10-09T01:45:58.946Z,51.216003
2022-10-09T01:46:58.899Z,51.216030
2022-10-09T01:47:58.912Z,51.216179
2022-10-09T01:48:58.885Z,51.216187
2022-10-09T01:49:58.885Z,51.216145
2022-10-09T01:50:58.879Z,51.216084
2022-10-09T01:51:58.871Z,51.216068
2022-10-09T01:52:58.867Z,51.216206
2022-10-09T01:53:58.862Z,51.216408
2022-10-09T01:54:58.854Z,51.216370
2022-10-09T01:55:58.846Z,51.216251
2022-10-09T01:56:58.834Z,51.216187
2022-10-09T01:57:58.830Z,51.216183
2022-10-09T01:58:59.831Z,51.216152
2022-10-09T01:59:58.811Z,51.216171
2022-10-09T02:00:58.815Z,51.216293
2022-10-09T02:01:58.925Z,51.216267
2022-10-09T02:02:58.832Z,51.216190
2022-10-09T02:03:58.814Z,51.216175
2022-10-09T02:04:58.793Z,51.216125
2022-10-09T02:05:58.783Z,51.216080
2022-10-09T02:06:58.775Z,51.216080
2022-10-09T02:07:58.770Z,51.216087
2022-10-09T02:08:58.778Z,51.215973
2022-10-09T02:09:58.758Z,51.216057
2022-10-09T02:10:58.752Z,51.216072
2022-10-09T02:11:58.762Z,51.216034
2022-10-09T02:12:58.741Z,51.216034
2022-10-09T02:13:58.735Z,51.215992
2022-10-09T02:14:58.747Z,51.215961
2022-10-09T02:15:58.763Z,51.215847
2022-10-09T02:16:58.744Z,51.215946
2022-10-09T02:17:58.703Z,51.216030
2022-10-09T02:18:58.704Z,51.216087
2022-10-09T02:19:58.695Z,51.216034
2022-10-09T02:20:58.691Z,51.216080
2022-10-09T02:21:58.683Z,51.216156
2022-10-09T02:22:58.699Z,51.216194
2022-10-09T02:23:58.665Z,51.216389
2022-10-09T02:24:58.660Z,51.216206
2022-10-09T02:25:58.655Z,51.216061
2022-10-09T02:26:58.642Z,51.216045
2022-10-09T02:27:58.656Z,51.215969
2022-10-09T02:28:58.631Z,51.215904
2022-10-09T02:29:58.617Z,51.215900
2022-10-09T02:30:58.706Z,51.215927
2022-10-09T02:31:58.612Z,51.216038
2022-10-09T02:32:58.647Z,51.216114
2022-10-09T02:33:58.655Z,51.216148
2022-10-09T02:34:58.598Z,51.216152
2022-10-09T02:35:58.576Z,51.216099
2022-10-09T02:36:58.577Z,51.216080
2022-10-09T02:37:58.567Z,51.216072
2022-10-09T02:38:58.576Z,51.216026
2022-10-09T02:39:58.543Z,51.216034
2022-10-09T02:40:58.544Z,51.216049
2022-10-09T02:41:58.528Z,51.216034
2022-10-09T02:42:58.534Z,51.215973
2022-10-09T02:43:58.527Z,51.216003
2022-10-09T02:44:58.527Z,51.216049
2022-10-09T02:45:58.575Z,51.216045
2022-10-09T02:46:58.506Z,51.216167
2022-10-09T02:47:58.503Z,51.216236
2022-10-09T02:48:58.495Z,51.216148
2022-10-09T02:49:58.506Z,51.216061
2022-10-09T02:50:58.478Z,51.216167
2022-10-09T02:51:58.474Z,51.216129
2022-10-09T02:52:58.468Z,51.216209
2022-10-09T02:53:58.508Z,51.216152
2022-10-09T02:54:58.459Z,51.216175
2022-10-09T02:55:58.501Z,51.216297
2022-10-09T02:56:58.454Z,51.216263
2022-10-09T02:57:58.658Z,51.216198
2022-10-09T02:58:58.431Z,51.216263
2022-10-09T02:59:58.442Z,51.216125
2022-10-09T03:00:58.443Z,51.216125
2022-10-09T03:01:58.527Z,51.216259
2022-10-09T03:02:58.622Z,51.216145
2022-10-09T03:03:58.402Z,51.216152
2022-10-09T03:04:58.394Z,51.216190
2022-10-09T03:05:58.439Z,51.216190
2022-10-09T03:06:58.534Z,51.216080
2022-10-09T03:07:58.391Z,51.216125
2022-10-09T03:08:58.370Z,51.216103
2022-10-09T03:09:58.369Z,51.216137
2022-10-09T03:10:58.371Z,51.216122
2022-10-09T03:11:58.359Z,51.216103
2022-10-09T03:12:58.338Z,51.216175
2022-10-09T03:13:58.333Z,51.216213
2022-10-09T03:14:58.330Z,51.216282
2022-10-09T03:15:58.380Z,51.216217
2022-10-09T03:16:58.306Z,51.216152
2022-10-09T03:17:58.314Z,51.216148
2022-10-09T03:18:58.302Z,51.216114
2022-10-09T03:19:58.294Z,51.216171
2022-10-09T03:20:58.290Z,51.216183
2022-10-09T03:21:58.425Z,51.216194
2022-10-09T03:22:58.291Z,51.216305
2022-10-09T03:23:58.284Z,51.216198
2022-10-09T03:24:58.269Z,51.216213
2022-10-09T03:25:58.266Z,51.216175
2022-10-09T03:26:58.257Z,51.216209
2022-10-09T03:27:58.266Z,51.216221
2022-10-09T03:28:58.241Z,51.216236
2022-10-09T03:29:58.236Z,51.216232
2022-10-09T03:30:58.267Z,51.216064
2022-10-09T03:31:58.311Z,51.215996
2022-10-09T03:32:58.234Z,51.216045
2022-10-09T03:33:58.202Z,51.216042
2022-10-09T03:34:58.197Z,51.216007
2022-10-09T03:35:58.205Z,51.216022
2022-10-09T03:36:58.186Z,51.216049
2022-10-09T03:37:58.257Z,51.216129
2022-10-09T03:38:58.306Z,51.216160
2022-10-09T03:39:58.303Z,51.216118
2022-10-09T03:40:58.246Z,51.216099
2022-10-09T03:41:58.259Z,51.216003
2022-10-09T03:42:58.354Z,51.216038
2022-10-09T03:43:58.182Z,51.216118
2022-10-09T03:44:58.129Z,51.216137
2022-10-09T03:46:00.992Z,51.216125
2022-10-09T03:46:59.228Z,51.216084
2022-10-09T03:47:58.114Z,51.216087
2022-10-09T03:48:58.121Z,51.216103
2022-10-09T03:49:58.104Z,51.216053
2022-10-09T03:50:58.093Z,51.216000
2022-10-09T03:51:58.082Z,51.216076
2022-10-09T03:52:58.089Z,51.216137
2022-10-09T03:53:58.072Z,51.216152
2022-10-09T03:54:58.072Z,51.216183
2022-10-09T03:55:58.069Z,51.216148
2022-10-09T03:56:58.060Z,51.216148
2022-10-09T03:57:58.053Z,51.216015
2022-10-09T03:58:58.063Z,51.215958
2022-10-09T03:59:58.033Z,51.216022
2022-10-09T04:00:58.064Z,51.216137
2022-10-09T04:01:58.022Z,51.216076
2022-10-09T04:02:58.076Z,51.216156
2022-10-09T04:03:58.024Z,51.216114
2022-10-09T04:04:57.998Z,51.216061
2022-10-09T04:05:58.033Z,51.216022
2022-10-09T04:06:57.999Z,51.215950
2022-10-09T04:07:57.994Z,51.215977
2022-10-09T04:08:57.973Z,51.215981
2022-10-09T04:09:57.971Z,51.216091
2022-10-09T04:10:57.966Z,51.216225
2022-10-09T04:11:57.954Z,51.216366
2022-10-09T04:12:57.973Z,51.216316
2022-10-09T04:13:57.934Z,51.216236
2022-10-09T04:14:58.941Z,51.216194
2022-10-09T04:15:57.996Z,51.216206
2022-10-09T04:16:57.922Z,51.216194
2022-10-09T04:17:57.917Z,51.216179
2022-10-09T04:18:57.926Z,51.216202
2022-10-09T04:19:57.907Z,51.216221
2022-10-09T04:20:57.894Z,51.216236
2022-10-09T04:21:57.896Z,51.216240
2022-10-09T04:22:57.887Z,51.216206
2022-10-09T04:23:57.879Z,51.216137
2022-10-09T04:24:57.866Z,51.216007
2022-10-09T04:25:57.862Z,51.215950
2022-10-09T04:26:57.850Z,51.216015
2022-10-09T04:27:57.873Z,51.216103
2022-10-09T04:28:58.881Z,51.216164
2022-10-09T04:29:57.839Z,51.216183
2022-10-09T04:30:57.825Z,51.216152
2022-10-09T04:31:57.850Z,51.216099
2022-10-09T04:32:57.805Z,51.216145
2022-10-09T04:33:57.809Z,51.216095
2022-10-09T04:34:57.790Z,51.216003
2022-10-09T04:35:57.794Z,51.216114
2022-10-09T04:36:57.796Z,51.216187
2022-10-09T04:37:57.770Z,51.216202
2022-10-09T04:38:57.761Z,51.216194
2022-10-09T04:39:57.763Z,51.216248
2022-10-09T04:40:57.753Z,51.216171
2022-10-09T04:41:57.763Z,51.216206
2022-10-09T04:42:57.742Z,51.216290
2022-10-09T04:43:57.741Z,51.216164
2022-10-09T04:44:57.730Z,51.216129
2022-10-09T04:45:57.756Z,51.216190
2022-10-09T04:46:57.709Z,51.216248
2022-10-09T04:47:57.709Z,51.216137
2022-10-09T04:48:57.706Z,51.216148
2022-10-09T04:49:57.689Z,51.216148
2022-10-09T04:50:57.691Z,51.216286
2022-10-09T04:51:57.682Z,51.216160
2022-10-09T04:52:57.673Z,51.216190
2022-10-09T04:54:00.620Z,51.216183
2022-10-09T04:54:58.662Z,51.216206
2022-10-09T04:55:57.661Z,51.216328
2022-10-09T04:56:57.653Z,51.216385
2022-10-09T04:57:57.639Z,51.216385
2022-10-09T04:58:57.636Z,51.216248
2022-10-09T04:59:57.634Z,51.216118
2022-10-09T05:00:57.675Z,51.216129
2022-10-09T05:01:57.690Z,51.216103
2022-10-09T05:02:57.609Z,51.216034
2022-10-09T05:03:57.649Z,51.216038
2022-10-09T05:04:57.596Z,51.216087
2022-10-09T05:05:57.597Z,51.216110
2022-10-09T05:06:57.577Z,51.216099
2022-10-09T05:07:57.576Z,51.216137
2022-10-09T05:08:57.570Z,51.216110
2022-10-09T05:09:57.573Z,51.216122
2022-10-09T05:10:57.570Z,51.216209
2022-10-09T05:11:57.558Z,51.216190
2022-10-09T05:12:57.545Z,51.216141
2022-10-09T05:13:57.534Z,51.216198
2022-10-09T05:14:57.531Z,51.216148
2022-10-09T05:15:57.592Z,51.216122
2022-10-09T05:17:12.945Z,51.216160
2022-10-09T05:17:59.524Z,51.216213
2022-10-09T05:18:57.498Z,51.216221
2022-10-09T05:19:57.504Z,51.216190
2022-10-09T05:20:57.514Z,51.216148
2022-10-09T05:21:57.507Z,51.216106
2022-10-09T05:22:57.486Z,51.216236
2022-10-09T05:23:57.477Z,51.216148
2022-10-09T05:24:57.490Z,51.216122
2022-10-09T05:25:57.489Z,51.216084
2022-10-09T05:26:57.457Z,51.216045
2022-10-09T05:27:57.454Z,51.216015
2022-10-09T05:28:57.453Z,51.216045
2022-10-09T05:29:57.442Z,51.216022
2022-10-09T05:30:57.437Z,51.216068
2022-10-09T05:31:57.534Z,51.216145
2022-10-09T05:32:57.417Z,51.216125
2022-10-09T05:33:57.413Z,51.216202
2022-10-09T05:34:57.406Z,51.216137
2022-10-09T05:35:57.424Z,51.216209
2022-10-09T05:36:57.398Z,51.216198
2022-10-09T05:37:57.389Z,51.216156
2022-10-09T05:38:57.381Z,51.216145
2022-10-09T05:39:57.413Z,51.216133
2022-10-09T05:40:58.381Z,51.216118
2022-10-09T05:41:57.357Z,51.216122
2022-10-09T05:42:57.357Z,51.216125
2022-10-09T05:43:57.351Z,51.216152
2022-10-09T05:44:57.371Z,51.216194
2022-10-09T05:45:57.415Z,51.216125
2022-10-09T05:46:57.329Z,51.216141
2022-10-09T05:47:57.322Z,51.216110
2022-10-09T05:48:57.317Z,51.216095
2022-10-09T05:49:57.313Z,51.216064
2022-10-09T05:50:57.333Z,51.216133
2022-10-09T05:51:57.309Z,51.216175
2022-10-09T05:52:57.290Z,51.216167
2022-10-09T05:53:57.282Z,51.216076
2022-10-09T05:54:57.265Z,51.216087
2022-10-09T05:56:01.537Z,51.216084
2022-10-09T05:56:59.302Z,51.216133
2022-10-09T05:57:57.249Z,51.216160
2022-10-09T05:58:57.242Z,51.216118
2022-10-09T05:59:57.237Z,51.216110
2022-10-09T06:00:57.256Z,51.216171
2022-10-09T06:01:57.295Z,51.216125
2022-10-09T06:02:57.383Z,51.216084
2022-10-09T06:03:57.206Z,51.216099
2022-10-09T06:04:57.202Z,51.216087
2022-10-09T06:05:57.190Z,51.216133
2022-10-09T06:06:57.197Z,51.216137
2022-10-09T06:07:57.197Z,51.216118
2022-10-09T06:08:57.177Z,51.216084
2022-10-09T06:09:57.165Z,51.216145
2022-10-09T06:10:57.161Z,51.216110
2022-10-09T06:11:57.153Z,51.216080
2022-10-09T06:12:57.157Z,51.216175
2022-10-09T06:13:57.141Z,51.216145
2022-10-09T06:14:57.137Z,51.216129
2022-10-09T06:15:57.128Z,51.216122
2022-10-09T06:16:57.152Z,51.216076
2022-10-09T06:17:57.132Z,51.216057
2022-10-09T06:18:57.105Z,51.216042
2022-10-09T06:19:57.097Z,51.216057
2022-10-09T06:20:57.096Z,51.216103
2022-10-09T06:21:57.081Z,51.216099
2022-10-09T06:22:57.105Z,51.216167
2022-10-09T06:23:57.081Z,51.216114
2022-10-09T06:24:57.062Z,51.216125
2022-10-09T06:25:57.048Z,51.216125
2022-10-09T06:26:57.066Z,51.216133
2022-10-09T06:27:57.048Z,51.216148
2022-10-09T06:28:57.050Z,51.216110
2022-10-09T06:29:57.037Z,51.216114
2022-10-09T06:30:57.053Z,51.216003
2022-10-09T06:31:57.019Z,51.216064
2022-10-09T06:32:57.011Z,51.216045
2022-10-09T06:33:57.026Z,51.216213
2022-10-09T06:34:56.999Z,51.216099
2022-10-09T06:36:05.615Z,51.216061
2022-10-09T06:36:58.991Z,51.216118
2022-10-09T06:37:56.975Z,51.216129
2022-10-09T06:38:56.992Z,51.216045
2022-10-09T06:39:56.971Z,51.216122
2022-10-09T06:40:56.966Z,51.215969
2022-10-09T06:41:56.944Z,51.216000
2022-10-09T06:42:56.956Z,51.216087
2022-10-09T06:43:56.964Z,51.216141
2022-10-09T06:44:56.937Z,51.216084
2022-10-09T06:45:56.959Z,51.216015
2022-10-09T06:46:56.933Z,51.216034
2022-10-09T06:47:56.927Z,51.216084
2022-10-09T06:48:56.911Z,51.216103
2022-10-09T06:49:56.915Z,51.216103
2022-10-09T06:50:56.898Z,51.216194
2022-10-09T06:51:56.901Z,51.216152
2022-10-09T06:52:56.899Z,51.216076
2022-10-09T06:53:56.883Z,51.216045
2022-10-09T06:54:56.867Z,51.216003
2022-10-09T06:55:56.883Z,51.215931
2022-10-09T06:56:56.851Z,51.216084
2022-10-09T06:57:56.867Z,51.216042
2022-10-09T06:58:56.831Z,51.216038
2022-10-09T06:59:56.841Z,51.215996
2022-10-09T07:00:56.862Z,51.216076
2022-10-09T07:01:57.073Z,51.216068
2022-10-09T07:02:56.923Z,51.216122
2022-10-09T07:03:56.827Z,51.216160
2022-10-09T07:04:56.827Z,51.216114
2022-10-09T07:05:56.799Z,51.216076
2022-10-09T07:06:56.793Z,51.216053
2022-10-09T07:07:56.784Z,51.216099
2022-10-09T07:08:56.787Z,51.216164
2022-10-09T07:09:56.767Z,51.216084
2022-10-09T07:10:56.787Z,51.216106
2022-10-09T07:11:56.763Z,51.216114
2022-10-09T07:12:56.759Z,51.216064
2022-10-09T07:13:56.778Z,51.216038
2022-10-09T07:14:56.747Z,51.216076
2022-10-09T07:15:58.036Z,51.216110
2022-10-09T07:16:56.732Z,51.216179
2022-10-09T07:17:56.722Z,51.216228
2022-10-09T07:18:56.717Z,51.216145
2022-10-09T07:19:56.721Z,51.216217
2022-10-09T07:20:56.704Z,51.216164
2022-10-09T07:21:56.690Z,51.216087
2022-10-09T07:22:56.696Z,51.216110
2022-10-09T07:23:56.689Z,51.216091
2022-10-09T07:24:56.673Z,51.216068
2022-10-09T07:25:56.676Z,51.216061
2022-10-09T07:26:56.676Z,51.215977
2022-10-09T07:27:56.654Z,51.216034
2022-10-09T07:28:56.674Z,51.216095
2022-10-09T07:29:56.667Z,51.216232
2022-10-09T07:30:56.689Z,51.216312
2022-10-09T07:31:56.631Z,51.216366
2022-10-09T07:32:56.631Z,51.216373
2022-10-09T07:33:56.621Z,51.216110
2022-10-09T07:34:56.695Z,51.216068
2022-10-09T07:35:56.615Z,51.216011
2022-10-09T07:36:56.591Z,51.216030
2022-10-09T07:37:56.583Z,51.216061
2022-10-09T07:38:56.586Z,51.216053
2022-10-09T07:39:56.569Z,51.215996
2022-10-09T07:40:56.581Z,51.216007
2022-10-09T07:41:56.567Z,51.216038
2022-10-09T07:42:56.561Z,51.215969
2022-10-09T07:43:56.545Z,51.216061
2022-10-09T07:44:56.543Z,51.216072
2022-10-09T07:45:56.575Z,51.216080
2022-10-09T07:46:56.530Z,51.216022
2022-10-09T07:47:56.527Z,51.215893
2022-10-09T07:48:56.515Z,51.216038
2022-10-09T07:49:56.505Z,51.216267
2022-10-09T07:50:56.526Z,51.216007
2022-10-09T07:51:56.505Z,51.216019
2022-10-09T07:52:56.486Z,51.215889
2022-10-09T07:53:56.483Z,51.216026
2022-10-09T07:54:56.474Z,51.216160
2022-10-09T07:55:56.490Z,51.216187
2022-10-09T07:56:56.463Z,51.216290
2022-10-09T07:57:56.568Z,51.216034
2022-10-09T07:58:56.433Z,51.216202
2022-10-09T07:59:57.434Z,51.216164
2022-10-09T08:00:56.421Z,51.216045
2022-10-09T08:01:56.475Z,51.216148
2022-10-09T08:02:56.505Z,51.216156
2022-10-09T08:03:56.416Z,51.216110
2022-10-09T08:04:56.405Z,51.216011
2022-10-09T08:05:56.407Z,51.215950
2022-10-09T08:06:56.427Z,51.216011
2022-10-09T08:07:56.376Z,51.216007
2022-10-09T08:08:56.386Z,51.216003
2022-10-09T08:09:56.374Z,51.216087
2022-10-09T08:10:56.366Z,51.216473
2022-10-09T08:11:56.371Z,51.216400
2022-10-09T08:12:56.354Z,51.216129
2022-10-09T08:13:56.373Z,51.216061
2022-10-09T08:14:56.348Z,51.216057
2022-10-09T08:15:56.400Z,51.216003
2022-10-09T08:16:56.347Z,51.215965
2022-10-09T08:17:56.343Z,51.216076
2022-10-09T08:18:56.921Z,51.216087
2022-10-09T08:19:56.307Z,51.216072
2022-10-09T08:20:56.299Z,51.216148
2022-10-09T08:21:59.088Z,51.216030
2022-10-09T08:22:57.307Z,51.216110
2022-10-09T08:23:56.275Z,51.216145
2022-10-09T08:24:56.268Z,51.216305
2022-10-09T08:25:56.267Z,51.216209
2022-10-09T08:26:56.384Z,51.216202
2022-10-09T08:27:57.971Z,51.216061
2022-10-09T08:28:56.310Z,51.216194
2022-10-09T08:29:57.099Z,51.216297
2022-10-09T08:30:56.390Z,51.216206
2022-10-09T08:31:56.219Z,51.216133
2022-10-09T08:32:56.242Z,51.215897
2022-10-09T08:33:56.203Z,51.215847
2022-10-09T08:34:57.204Z,51.215862
2022-10-09T08:35:56.204Z,51.215775
2022-10-09T08:36:56.192Z,51.215691
2022-10-09T08:37:56.203Z,51.215794
2022-10-09T08:38:56.183Z,51.215782
2022-10-09T08:39:56.175Z,51.215702
2022-10-09T08:40:58.236Z,51.215958
2022-10-09T08:41:57.168Z,51.215908
2022-10-09T08:42:56.155Z,51.215874
2022-10-09T08:43:56.175Z,51.215797
2022-10-09T08:44:56.151Z,51.215954
2022-10-09T08:45:56.189Z,51.216000
2022-10-09T08:46:56.133Z,51.215996
2022-10-09T08:47:56.138Z,51.215954
2022-10-09T08:48:56.123Z,51.215889
2022-10-09T08:49:56.107Z,51.215847
2022-10-09T08:50:56.108Z,51.215710
2022-10-09T08:51:56.099Z,51.215916
2022-10-09T08:52:56.858Z,51.215652
2022-10-09T08:53:56.139Z,51.216022
2022-10-09T08:54:56.077Z,51.216164
2022-10-09T08:55:56.063Z,51.216045
2022-10-09T08:56:56.050Z,51.216064
2022-10-09T08:57:56.041Z,51.216049
2022-10-09T08:58:56.054Z,51.216190
2022-10-09T08:59:56.038Z,51.216125
2022-10-09T09:00:56.035Z,51.216049
2022-10-09T09:01:56.074Z,51.215996
2022-10-09T09:02:56.026Z,51.215984
2022-10-09T09:03:56.011Z,51.215958
2022-10-09T09:04:56.027Z,51.215866
2022-10-09T09:05:55.998Z,51.215805
2022-10-09T09:06:55.986Z,51.215870
2022-10-09T09:07:55.990Z,51.216072
2022-10-09T09:08:55.971Z,51.216160
2022-10-09T09:09:55.990Z,51.216152
2022-10-09T09:10:55.963Z,51.216026
2022-10-09T09:11:55.963Z,51.216362
2022-10-09T09:12:55.944Z,51.216576
2022-10-09T09:13:55.943Z,51.216408
2022-10-09T09:14:56.005Z,51.216331
2022-10-09T09:15:55.953Z,51.216240
2022-10-09T09:16:55.924Z,51.216187
2022-10-09T09:17:55.917Z,51.216194
2022-10-09T09:18:55.914Z,51.216194
2022-10-09T09:19:55.907Z,51.216137
2022-10-09T09:20:55.910Z,51.215847
2022-10-09T09:21:55.940Z,51.215794
2022-10-09T09:22:55.930Z,51.215897
2022-10-09T09:23:55.887Z,51.215881
2022-10-09T09:24:55.997Z,51.216007
2022-10-09T09:25:55.887Z,51.215965
2022-10-09T09:26:55.914Z,51.216141
2022-10-09T09:27:55.863Z,51.216110
2022-10-09T09:28:55.988Z,51.216129
2022-10-09T09:29:55.856Z,51.216061
2022-10-09T09:30:55.883Z,51.216064
2022-10-09T09:31:55.868Z,51.216202
2022-10-09T09:32:55.989Z,51.216068
2022-10-09T09:33:55.863Z,51.216137
2022-10-09T09:34:55.820Z,51.216110
2022-10-09T09:35:55.828Z,51.216118
2022-10-09T09:36:55.826Z,51.216183
2022-10-09T09:37:55.831Z,51.216042
2022-10-09T09:39:54.241Z,51.216015
2022-10-09T09:40:57.782Z,51.215965
2022-10-09T09:41:55.768Z,51.216015
2022-10-09T09:42:55.755Z,51.215885
2022-10-09T09:43:55.747Z,51.215973
2022-10-09T09:44:55.743Z,51.215942
2022-10-09T09:45:55.760Z,51.216034
2022-10-09T09:46:55.811Z,51.216148
2022-10-09T09:47:55.734Z,51.216042
2022-10-09T09:48:55.890Z,51.215954
2022-10-09T09:49:56.480Z,51.215855
2022-10-09T09:51:16.193Z,51.215984
2022-10-09T09:51:57.755Z,51.215996
2022-10-09T09:52:55.778Z,51.216095
2022-10-09T09:53:55.703Z,51.216019
2022-10-09T09:54:55.730Z,51.216091
2022-10-09T09:55:55.697Z,51.216057
2022-10-09T09:57:14.906Z,51.216091
2022-10-09T09:57:57.787Z,51.216072
2022-10-09T09:58:56.422Z,51.216160
2022-10-09T09:59:56.423Z,51.216091
2022-10-09T10:00:55.915Z,51.216114
2022-10-09T10:01:55.767Z,51.216087
2022-10-09T10:02:55.675Z,51.216061
2022-10-09T10:03:55.799Z,51.215775
2022-10-09T10:04:55.688Z,51.215870
2022-10-09T10:05:55.667Z,51.215931
2022-10-09T10:06:55.624Z,51.215973
2022-10-09T10:07:55.607Z,51.216106
2022-10-09T10:08:55.804Z,51.216087
2022-10-09T10:09:55.659Z,51.216228
2022-10-09T10:10:55.628Z,51.216160
2022-10-09T10:11:55.640Z,51.216084
2022-10-09T10:12:55.587Z,51.216087
2022-10-09T10:13:55.583Z,51.216068
2022-10-09T10:14:55.568Z,51.216118
2022-10-09T10:15:55.665Z,51.216076
2022-10-09T10:16:55.594Z,51.216164
2022-10-09T10:17:55.595Z,51.216053
2022-10-09T10:18:55.590Z,51.216129
2022-10-09T10:19:55.557Z,51.215969
2022-10-09T10:20:55.575Z,51.216057
2022-10-09T10:21:55.543Z,51.216011
2022-10-09T10:22:55.557Z,51.216114
2022-10-09T10:23:55.556Z,51.216076
2022-10-09T10:24:55.579Z,51.216103
2022-10-09T10:25:55.519Z,51.216141
2022-10-09T10:26:55.527Z,51.216187
2022-10-09T10:27:55.545Z,51.216175
2022-10-09T10:28:55.533Z,51.216167
2022-10-09T10:29:55.514Z,51.216106
2022-10-09T10:30:55.513Z,51.216221
2022-10-09T10:31:55.513Z,51.216076
2022-10-09T10:32:55.481Z,51.215965
2022-10-09T10:33:55.470Z,51.216095
2022-10-09T10:34:55.509Z,51.216122
2022-10-09T10:35:55.499Z,51.216206
2022-10-09T10:36:58.540Z,51.216221
2022-10-09T10:37:56.442Z,51.216183
2022-10-09T10:38:55.484Z,51.216282
2022-10-09T10:39:55.453Z,51.216335
2022-10-09T10:40:55.442Z,51.216209
2022-10-09T10:41:56.357Z,51.216156
2022-10-09T10:42:58.669Z,51.216042
2022-10-09T10:43:56.456Z,51.216034
2022-10-09T10:44:55.442Z,51.216080
2022-10-09T10:45:55.444Z,51.216007
2022-10-09T10:46:55.616Z,51.216053
2022-10-09T10:47:55.432Z,51.216042
2022-10-09T10:48:55.409Z,51.216030
2022-10-09T10:49:55.401Z,51.216133
2022-10-09T10:50:55.397Z,51.216072
2022-10-09T10:51:55.399Z,51.216145
2022-10-09T10:52:55.417Z,51.216068
2022-10-09T10:53:55.395Z,51.216114
2022-10-09T10:54:55.378Z,51.216007
2022-10-09T10:55:55.378Z,51.216068
2022-10-09T10:56:55.384Z,51.216038
2022-10-09T10:57:55.393Z,51.215839
2022-10-09T10:58:56.477Z,51.215954
2022-10-09T10:59:55.365Z,51.216049
2022-10-09T11:00:55.418Z,51.216206
2022-10-09T11:01:55.343Z,51.216175
2022-10-09T11:02:55.795Z,51.216209
2022-10-09T11:03:55.349Z,51.216061
2022-10-09T11:04:55.540Z,51.216061
2022-10-09T11:05:55.331Z,51.216080
2022-10-09T11:06:55.325Z,51.216042
2022-10-09T11:07:59.102Z,51.215919
2022-10-09T11:08:56.318Z,51.216003
2022-10-09T11:09:55.341Z,51.216064
2022-10-09T11:10:55.314Z,51.216053
2022-10-09T11:11:55.309Z,51.216103
2022-10-09T11:12:55.321Z,51.216045
2022-10-09T11:13:55.300Z,51.216030
2022-10-09T11:14:55.293Z,51.216030
2022-10-09T11:15:55.327Z,51.216042
2022-10-09T11:16:55.288Z,51.216125
2022-10-09T11:17:55.309Z,51.216049
2022-10-09T11:18:55.278Z,51.216022
2022-10-09T11:19:55.281Z,51.215961
2022-10-09T11:20:55.316Z,51.216076
2022-10-09T11:21:55.260Z,51.216042
2022-10-09T11:22:55.266Z,51.216022
2022-10-09T11:23:55.240Z,51.216160
2022-10-09T11:24:55.249Z,51.216179
2022-10-09T11:25:55.248Z,51.216137